Avalon, California
Current Conditions -  °F | °C
As of 2:16 AM on Sunday 26 Oct 2014 (Local Time) from KAVX Reporting Station
Haze Haze  
Wind Chill: 16°   Ceiling: 100
Heat Index: 16°   Visibility: 0.75mi
Dew Point: 13°   Wind: 9mph
Humidity: 86%   Direction: 250°WSW
Pressure: 30.05"   Gusts: NA
Location:  33.34°N, 118.33°W
Report Text: KAVX 260916Z AUTO 25008KT 3/4SM BR VV001 16/13 A3005 RMK AO2 VIS M1/4V5 T01560133 $
Loading
Personal Weather Stations






























Interactive Weather Map New forecast layout! Learn more

10-Day Weather Forecast

Advertisements
Track Severe Weather on mobile